Alba, TX

10:14 AM CST on December 09, 2016 (GMT -0600)
Ray Branch - Lake Fork | | Change Station

Elev 420 ft 32.81 °N, 95.58 °W | Updated 3 minutes ago

Mostly Cloudy
Mostly Cloudy
35.9 °F
Feels Like 36 °F
N
2.0
Wind Variable Wind from ESE
Gusts 7.0 mph

Today
High -- | Low -- °F
--% Chance of Precip.
Yesterday
High -- | Low -- °F
Precip. -- in
Pressure 30.67 in
Visibility 10.0 miles
Clouds Scattered Clouds 8000 ft
Windchill 36 °F
Dew Point 21 °F
Humidity 54%
Rainfall 0.00 in
Snow Depth Not available.
7:13 AM 5:16 PM
Waxing Gibbous, 75% visible
METAR KJDD 091555Z AUTO 08004KT 10SM SCT080 01/M09 A3067 RMK AO2
Pressure 30.67 in
Visibility 10.0 miles
Clouds Scattered Clouds 8000 ft
Windchill 36 °F
Dew Point 21 °F
Humidity 54%
Rainfall 0.00 in
Snow Depth Not available.
7:13 AM 5:16 PM
Waxing Gibbous, 75% visible
METAR KJDD 091555Z AUTO 08004KT 10SM SCT080 01/M09 A3067 RMK AO2

10-Day Weather Forecast

Almanac

Astronomy

Dec. 09, 2016 Rise Set
Actual Time
Civil Twilight
Nautical Twilight
Astronomical Twilight
Moon
Length of Visible Light
Length of Day
Tomorrow will be .
, % of the Moon is Illuminated

Today's Extremes

State Highs State Lows

Community

WunderPhotos

Upload Photos

1,956,462 photos uploaded!

WunderBlog® & News

Nearby

Air Quality

  Air Quality AQ Index Pollutant
Not available.

Snow Depth

Station Depth Elevation

Earthquake Activity

City Distance Mag. Time & Date
Minimum magnitude displayed is 2.5.

Coastal Water Temperatures

Place Temperature

Stations

Nearby Weather Stations

Station Location Temp. Windchill Dew Point Humidity Wind Precip. Elev Updated Type
                   

Watches & Warnings

There are currently no watches in effect.